createdAt,value
2023-01-22T00:01:23.121Z,2.10
2023-01-22T00:03:53.297Z,2.60
2023-01-22T00:06:21.985Z,2.47
2023-01-22T00:08:50.471Z,2.58
2023-01-22T00:11:19.816Z,2.85
2023-01-22T00:13:48.279Z,3.08
2023-01-22T00:16:18.587Z,2.75
2023-01-22T00:18:46.938Z,2.78
2023-01-22T00:21:15.411Z,2.50
2023-01-22T00:23:43.730Z,2.22
2023-01-22T00:26:13.390Z,2.85
2023-01-22T00:28:42.697Z,3.35
2023-01-22T00:31:12.884Z,2.40
2023-01-22T00:33:43.838Z,2.45
2023-01-22T00:36:13.531Z,2.95
2023-01-22T00:38:41.813Z,2.75
2023-01-22T00:41:10.981Z,2.78
2023-01-22T00:43:39.675Z,4.63
2023-01-22T00:46:08.320Z,3.60
2023-01-22T00:48:36.943Z,2.45
2023-01-22T00:51:08.625Z,3.08
2023-01-22T00:53:37.120Z,3.33
2023-01-22T00:56:06.898Z,2.60
2023-01-22T00:58:35.214Z,2.70
2023-01-22T01:01:03.611Z,3.10
2023-01-22T01:03:32.373Z,2.83
2023-01-22T01:06:02.116Z,3.00
2023-01-22T01:08:33.018Z,4.13
2023-01-22T01:11:03.704Z,2.80
2023-01-22T01:13:33.816Z,2.95
2023-01-22T01:16:03.075Z,2.95
2023-01-22T01:18:31.589Z,3.45
2023-01-22T01:21:01.597Z,4.35
2023-01-22T01:23:31.409Z,4.72
2023-01-22T01:25:59.727Z,3.00
2023-01-22T01:28:28.736Z,2.60
2023-01-22T01:30:57.174Z,2.55
2023-01-22T01:33:25.546Z,5.10
2023-01-22T01:36:01.109Z,4.85
2023-01-22T01:38:30.832Z,3.45
2023-01-22T01:40:59.255Z,6.57
2023-01-22T01:43:27.717Z,9.32
2023-01-22T01:45:56.352Z,3.25
2023-01-22T01:48:31.305Z,7.07
2023-01-22T01:51:03.868Z,8.85
2023-01-22T01:53:33.610Z,6.07
2023-01-22T01:56:02.754Z,5.68
2023-01-22T01:58:32.372Z,6.40
2023-01-22T02:01:02.505Z,3.63
2023-01-22T02:03:30.831Z,3.28
2023-01-22T02:05:59.269Z,3.60
2023-01-22T02:08:27.523Z,3.10
2023-01-22T02:10:57.264Z,3.35
2023-01-22T02:13:28.879Z,3.08
2023-01-22T02:15:57.169Z,3.40
2023-01-22T02:18:25.444Z,2.90
2023-01-22T02:20:57.024Z,3.42
2023-01-22T02:23:25.599Z,3.00
2023-01-22T02:25:53.979Z,3.40
2023-01-22T02:28:22.569Z,3.17
2023-01-22T02:30:50.896Z,3.22
2023-01-22T02:33:19.207Z,3.63
2023-01-22T02:35:47.440Z,3.17
2023-01-22T02:38:17.139Z,3.75
2023-01-22T02:40:49.322Z,3.72
2023-01-22T02:43:17.853Z,3.35
2023-01-22T02:45:46.124Z,3.08
2023-01-22T02:48:14.449Z,3.65
2023-01-22T02:50:45.073Z,4.40
2023-01-22T02:53:13.422Z,3.60
2023-01-22T02:55:44.964Z,3.30
2023-01-22T02:58:13.343Z,4.13
2023-01-22T03:00:41.665Z,3.72
2023-01-22T03:03:15.224Z,3.50
2023-01-22T03:05:48.603Z,3.70
2023-01-22T03:08:17.163Z,3.78
2023-01-22T03:10:47.093Z,3.40
2023-01-22T03:13:32.787Z,3.88
2023-01-22T03:16:18.390Z,4.10
2023-01-22T03:19:04.148Z,3.33
2023-01-22T03:21:32.444Z,3.13
2023-01-22T03:24:00.736Z,3.70
2023-01-22T03:26:31.583Z,3.60
2023-01-22T03:28:59.897Z,4.20
2023-01-22T03:31:28.223Z,3.97
2023-01-22T03:33:56.589Z,3.67
2023-01-22T03:36:24.920Z,3.53
2023-01-22T03:38:53.169Z,3.90
2023-01-22T03:41:21.547Z,4.90
2023-01-22T03:43:51.210Z,3.88
2023-01-22T03:46:20.791Z,2.97
2023-01-22T03:48:51.995Z,3.60
2023-01-22T03:51:20.317Z,3.75
2023-01-22T03:53:48.701Z,3.95
2023-01-22T03:56:19.266Z,3.60
2023-01-22T03:58:47.808Z,3.55
2023-01-22T04:01:19.127Z,3.80
2023-01-22T04:03:47.384Z,3.80
2023-01-22T04:06:15.922Z,4.13
2023-01-22T04:08:46.045Z,4.03
2023-01-22T04:11:14.404Z,3.60
2023-01-22T04:13:44.015Z,4.50
2023-01-22T04:16:12.805Z,3.80
2023-01-22T04:18:42.665Z,3.60
2023-01-22T04:21:11.012Z,3.72
2023-01-22T04:23:39.248Z,4.00
2023-01-22T04:26:07.573Z,4.43
2023-01-22T04:28:35.924Z,4.47
2023-01-22T04:31:05.153Z,4.22
2023-01-22T04:33:33.478Z,3.70
2023-01-22T04:36:03.196Z,4.35
2023-01-22T04:38:31.489Z,3.65
2023-01-22T04:40:59.748Z,4.28
2023-01-22T04:43:28.117Z,4.00
2023-01-22T04:45:56.437Z,3.90
2023-01-22T04:48:24.813Z,4.57
2023-01-22T04:50:53.252Z,4.05
2023-01-22T04:53:22.941Z,4.50
2023-01-22T04:55:51.229Z,4.05
2023-01-22T04:58:19.494Z,3.67
2023-01-22T05:00:48.196Z,3.95
2023-01-22T05:03:16.515Z,3.90
2023-01-22T05:05:44.825Z,4.10
2023-01-22T05:08:13.076Z,4.60
2023-01-22T05:10:42.781Z,4.18
2023-01-22T05:13:11.037Z,3.92
2023-01-22T05:15:39.418Z,4.40
2023-01-22T05:18:07.861Z,4.32
2023-01-22T05:20:36.243Z,4.50
2023-01-22T05:23:04.508Z,4.38
2023-01-22T05:25:32.813Z,4.13
2023-01-22T05:28:02.488Z,4.80
2023-01-22T05:30:30.870Z,4.55
2023-01-22T05:32:59.358Z,4.88
2023-01-22T05:35:28.047Z,5.10
2023-01-22T05:37:57.384Z,4.25
2023-01-22T05:40:25.759Z,4.20
2023-01-22T05:42:54.143Z,4.80
2023-01-22T05:45:23.806Z,4.55
2023-01-22T05:47:54.285Z,4.53
2023-01-22T05:50:22.674Z,4.07
2023-01-22T05:52:56.006Z,4.00
2023-01-22T05:55:24.343Z,3.92
2023-01-22T05:57:52.593Z,4.75
2023-01-22T06:00:21.260Z,4.05
2023-01-22T06:02:51.050Z,4.60
2023-01-22T06:05:19.468Z,4.40
2023-01-22T06:07:47.764Z,4.65
2023-01-22T06:10:17.214Z,4.40
2023-01-22T06:12:45.751Z,4.45
2023-01-22T06:15:14.047Z,5.10
2023-01-22T06:17:42.372Z,4.90
2023-01-22T06:20:13.016Z,4.55
2023-01-22T06:22:41.334Z,4.82
2023-01-22T06:25:10.702Z,4.90
2023-01-22T06:27:38.969Z,5.05
2023-01-22T06:30:09.139Z,4.90
2023-01-22T06:32:37.445Z,5.40
2023-01-22T06:35:06.894Z,5.93
2023-01-22T06:37:36.564Z,4.97
2023-01-22T06:40:05.587Z,5.10
2023-01-22T06:42:33.810Z,4.95
2023-01-22T06:45:02.096Z,5.47
2023-01-22T06:47:30.415Z,4.47
2023-01-22T06:49:59.115Z,5.78
2023-01-22T06:52:27.367Z,5.65
2023-01-22T06:54:57.050Z,5.40
2023-01-22T06:57:25.328Z,5.10
2023-01-22T06:59:53.607Z,5.25
2023-01-22T07:02:21.933Z,5.88
2023-01-22T07:04:50.254Z,6.07
2023-01-22T07:07:18.506Z,6.03
2023-01-22T07:09:46.834Z,7.07
2023-01-22T07:12:16.503Z,6.20
2023-01-22T07:14:44.788Z,6.95
2023-01-22T07:17:13.100Z,6.45
2023-01-22T07:19:41.437Z,6.50
2023-01-22T07:22:09.955Z,6.68
2023-01-22T07:24:38.240Z,6.55
2023-01-22T07:27:06.494Z,6.20
2023-01-22T07:29:36.118Z,6.65
2023-01-22T07:32:04.419Z,7.10
2023-01-22T07:34:32.768Z,7.05
2023-01-22T07:37:01.992Z,6.38
2023-01-22T07:39:30.405Z,6.75
2023-01-22T07:42:01.207Z,6.85
2023-01-22T07:44:29.598Z,6.32
2023-01-22T07:46:59.237Z,7.70
2023-01-22T07:49:27.580Z,6.38
2023-01-22T07:51:55.933Z,6.10
2023-01-22T07:54:24.282Z,5.93
2023-01-22T07:56:52.571Z,6.25
2023-01-22T07:59:21.138Z,5.50
2023-01-22T08:01:49.490Z,5.53
2023-01-22T08:04:19.131Z,5.65
2023-01-22T08:06:47.498Z,5.05
2023-01-22T08:09:24.211Z,6.75
2023-01-22T08:11:53.093Z,5.47
2023-01-22T08:14:21.511Z,5.55
2023-01-22T08:16:50.136Z,5.32
2023-01-22T08:19:19.799Z,5.53
2023-01-22T08:21:48.095Z,5.68
2023-01-22T08:24:16.322Z,6.15
2023-01-22T08:26:45.433Z,5.68
2023-01-22T08:29:13.834Z,5.50
2023-01-22T08:31:42.195Z,6.20
2023-01-22T08:34:10.609Z,5.75
2023-01-22T08:36:40.222Z,5.95
2023-01-22T08:39:11.206Z,5.93
2023-01-22T08:41:39.531Z,5.30
2023-01-22T08:44:07.821Z,6.00
2023-01-22T08:46:40.162Z,5.60
2023-01-22T08:49:09.111Z,6.20
2023-01-22T08:51:37.352Z,6.20
2023-01-22T08:54:07.373Z,6.25
2023-01-22T08:56:35.717Z,6.20
2023-01-22T08:59:06.483Z,6.75
2023-01-22T09:01:35.346Z,6.22
2023-01-22T09:04:03.689Z,7.25
2023-01-22T09:06:31.927Z,6.75
2023-01-22T09:09:01.660Z,6.65
2023-01-22T09:11:31.447Z,6.78
2023-01-22T09:13:59.979Z,6.90
2023-01-22T09:16:28.648Z,6.80
2023-01-22T09:18:57.246Z,7.10
2023-01-22T09:21:25.519Z,7.38
2023-01-22T09:23:54.419Z,7.28
2023-01-22T09:26:22.767Z,6.32
2023-01-22T09:28:52.522Z,7.10
2023-01-22T09:31:21.601Z,8.10
2023-01-22T09:33:51.278Z,9.15
2023-01-22T09:36:19.600Z,8.02
2023-01-22T09:38:48.153Z,6.15
2023-01-22T09:41:22.443Z,7.85
2023-01-22T09:43:55.050Z,9.85
2023-01-22T09:46:28.732Z,10.85
2023-01-22T09:49:02.426Z,7.65
2023-01-22T09:51:31.114Z,7.80
2023-01-22T09:54:00.823Z,7.15
2023-01-22T09:56:36.589Z,8.52
2023-01-22T09:59:06.603Z,8.23
2023-01-22T10:01:34.909Z,6.97
2023-01-22T10:04:06.352Z,8.52
2023-01-22T10:06:34.625Z,8.30
2023-01-22T10:09:13.534Z,7.72
2023-01-22T10:11:41.935Z,8.00
2023-01-22T10:14:16.857Z,8.45
2023-01-22T10:16:46.070Z,8.70
2023-01-22T10:19:19.220Z,8.40
2023-01-22T10:21:49.896Z,7.93
2023-01-22T10:24:18.219Z,8.20
2023-01-22T10:26:49.195Z,7.20
2023-01-22T10:29:25.364Z,7.22
2023-01-22T10:31:54.954Z,7.43
2023-01-22T10:34:27.411Z,8.43
2023-01-22T10:36:55.948Z,6.93
2023-01-22T10:39:24.164Z,7.88
2023-01-22T10:41:52.540Z,7.55
2023-01-22T10:44:26.655Z,8.93
2023-01-22T10:46:56.439Z,7.32
2023-01-22T10:49:26.382Z,7.57
2023-01-22T10:51:56.183Z,6.82
2023-01-22T10:54:34.576Z,7.45
2023-01-22T10:57:07.976Z,8.57
2023-01-22T10:59:38.312Z,7.10
2023-01-22T11:02:22.808Z,8.55
2023-01-22T11:04:51.243Z,6.72
2023-01-22T11:07:21.508Z,7.18
2023-01-22T11:09:53.936Z,7.05
2023-01-22T11:12:24.214Z,6.88
2023-01-22T11:15:01.573Z,7.30
2023-01-22T11:17:33.400Z,6.85
2023-01-22T11:20:04.509Z,6.50
2023-01-22T11:22:34.759Z,5.95
2023-01-22T11:25:03.317Z,7.07
2023-01-22T11:27:59.610Z,7.50
2023-01-22T11:30:52.094Z,6.45
2023-01-22T11:33:33.760Z,6.25
2023-01-22T11:36:05.272Z,6.40
2023-01-22T11:38:40.132Z,6.78
2023-01-22T11:41:22.537Z,6.07
2023-01-22T11:44:19.314Z,6.35
2023-01-22T11:47:27.543Z,6.18
2023-01-22T11:50:09.243Z,6.28
2023-01-22T11:52:46.477Z,6.10
2023-01-22T11:55:54.644Z,6.60
2023-01-22T11:58:32.553Z,6.40
2023-01-22T12:01:14.128Z,7.43
2023-01-22T12:04:38.071Z,6.45
2023-01-22T12:07:35.316Z,6.30
2023-01-22T12:10:44.755Z,6.43
2023-01-22T12:13:27.234Z,6.88
2023-01-22T12:15:59.788Z,6.82
2023-01-22T12:18:49.513Z,6.55
2023-01-22T12:21:23.738Z,7.85
2023-01-22T12:23:55.086Z,7.45
2023-01-22T12:26:26.258Z,7.10
2023-01-22T12:28:58.179Z,7.20
2023-01-22T12:31:30.261Z,7.25
2023-01-22T12:33:59.335Z,7.90
2023-01-22T12:36:29.069Z,7.53
2023-01-22T12:39:01.304Z,10.65
2023-01-22T12:41:47.650Z,10.23
2023-01-22T12:44:30.357Z,7.57
2023-01-22T12:47:06.508Z,7.40
2023-01-22T12:49:38.600Z,7.82
2023-01-22T12:52:31.904Z,7.68
2023-01-22T12:55:00.579Z,7.40
2023-01-22T12:57:37.827Z,7.20
2023-01-22T13:00:34.068Z,7.40
2023-01-22T13:03:03.729Z,6.53
2023-01-22T13:05:45.772Z,7.07
2023-01-22T13:08:44.117Z,11.43
2023-01-22T13:11:13.617Z,7.53
2023-01-22T13:13:46.740Z,7.50
2023-01-22T13:16:24.472Z,7.63
2023-01-22T13:18:55.111Z,8.90
2023-01-22T13:21:27.937Z,7.82
2023-01-22T13:24:03.089Z,7.82
2023-01-22T13:26:34.223Z,7.13
2023-01-22T13:29:05.164Z,8.48
2023-01-22T13:31:34.770Z,9.25
2023-01-22T13:34:08.790Z,10.00
2023-01-22T13:36:39.759Z,8.48
2023-01-22T13:39:17.931Z,9.07
2023-01-22T13:41:48.484Z,9.32
2023-01-22T13:44:19.869Z,9.35
2023-01-22T13:46:48.441Z,14.70
2023-01-22T13:49:23.442Z,14.60
2023-01-22T13:51:51.836Z,10.13
2023-01-22T13:54:25.362Z,8.88
2023-01-22T13:56:53.643Z,8.57
2023-01-22T13:59:24.153Z,8.98
2023-01-22T14:01:52.623Z,8.90
2023-01-22T14:04:44.916Z,8.45
2023-01-22T14:07:17.935Z,9.45
2023-01-22T14:09:47.609Z,8.90
2023-01-22T14:12:17.035Z,9.95
2023-01-22T14:14:45.513Z,9.40
2023-01-22T14:17:28.804Z,9.98
2023-01-22T14:19:57.356Z,10.02
2023-01-22T14:22:25.777Z,13.02
2023-01-22T14:24:55.476Z,11.43
2023-01-22T14:27:25.122Z,11.45
2023-01-22T14:29:54.207Z,11.90
2023-01-22T14:32:23.439Z,12.50
2023-01-22T14:34:52.433Z,11.93
2023-01-22T14:37:21.170Z,12.07
2023-01-22T14:39:49.419Z,12.90
2023-01-22T14:42:19.157Z,12.25
2023-01-22T14:44:47.399Z,13.07
2023-01-22T14:47:16.081Z,12.05
2023-01-22T14:49:44.414Z,12.57
2023-01-22T14:52:12.653Z,11.02
2023-01-22T14:54:41.346Z,12.20
2023-01-22T14:57:09.642Z,13.00
2023-01-22T14:59:39.235Z,12.05
2023-01-22T15:02:07.520Z,12.07
2023-01-22T15:04:35.823Z,11.95
2023-01-22T15:07:04.043Z,11.57
2023-01-22T15:09:32.386Z,11.98
2023-01-22T15:12:00.614Z,11.73
2023-01-22T15:14:29.019Z,12.60
2023-01-22T15:16:58.747Z,12.80
2023-01-22T15:19:27.060Z,15.10
2023-01-22T15:21:55.435Z,18.13
2023-01-22T15:24:26.506Z,13.73
2023-01-22T15:26:54.999Z,13.27
2023-01-22T15:29:23.291Z,13.18
2023-01-22T15:31:51.606Z,12.13
2023-01-22T15:34:21.674Z,12.80
2023-01-22T15:36:49.957Z,13.25
2023-01-22T15:39:18.259Z,13.27
2023-01-22T15:41:47.251Z,12.70
2023-01-22T15:44:15.805Z,13.27
2023-01-22T15:46:44.601Z,14.15
2023-01-22T15:49:13.240Z,13.95
2023-01-22T15:51:42.963Z,12.82
2023-01-22T15:54:15.160Z,14.13
2023-01-22T15:56:43.514Z,12.82
2023-01-22T15:59:11.936Z,11.85
2023-01-22T16:01:40.251Z,12.43
2023-01-22T16:04:09.635Z,14.43
2023-01-22T16:06:38.495Z,14.15
2023-01-22T16:09:08.602Z,12.63
2023-01-22T16:11:37.060Z,13.75
2023-01-22T16:14:05.321Z,12.05
2023-01-22T16:16:36.336Z,13.98
2023-01-22T16:19:06.448Z,13.65
2023-01-22T16:21:34.847Z,14.48
2023-01-22T16:24:03.518Z,13.70
2023-01-22T16:26:35.408Z,13.63
2023-01-22T16:29:05.543Z,13.63
2023-01-22T16:31:35.579Z,15.50
2023-01-22T16:34:09.312Z,13.95
2023-01-22T16:36:37.657Z,14.80
2023-01-22T16:39:06.092Z,14.15
2023-01-22T16:41:36.972Z,15.23
2023-01-22T16:44:08.903Z,14.55
2023-01-22T16:46:38.581Z,15.02
2023-01-22T16:49:08.793Z,16.35
2023-01-22T16:51:38.618Z,15.35
2023-01-22T16:54:07.612Z,16.08
2023-01-22T16:56:37.263Z,14.43
2023-01-22T16:59:05.613Z,14.88
2023-01-22T17:01:33.849Z,14.30
2023-01-22T17:04:02.223Z,13.90
2023-01-22T17:06:33.448Z,15.20
2023-01-22T17:09:01.759Z,15.20
2023-01-22T17:11:30.013Z,15.32
2023-01-22T17:14:00.196Z,15.93
2023-01-22T17:16:28.451Z,15.48
2023-01-22T17:18:58.995Z,16.25
2023-01-22T17:21:28.569Z,16.05
2023-01-22T17:23:56.936Z,15.63
2023-01-22T17:26:25.209Z,13.63
2023-01-22T17:28:53.628Z,14.25
2023-01-22T17:31:24.581Z,14.00
2023-01-22T17:33:55.309Z,13.23
2023-01-22T17:36:25.094Z,12.80
2023-01-22T17:38:53.570Z,13.60
2023-01-22T17:41:23.088Z,11.70
2023-01-22T17:43:52.864Z,12.98
2023-01-22T17:46:24.583Z,12.30
2023-01-22T17:48:52.993Z,12.00
2023-01-22T17:51:22.652Z,12.52
2023-01-22T17:53:52.094Z,10.80
2023-01-22T17:56:22.140Z,12.00
2023-01-22T17:58:52.713Z,10.30
2023-01-22T18:01:25.594Z,12.25
2023-01-22T18:03:53.894Z,11.98
2023-01-22T18:06:22.221Z,12.05
2023-01-22T18:08:50.444Z,11.90
2023-01-22T18:11:24.034Z,13.63
2023-01-22T18:13:52.378Z,13.55
2023-01-22T18:16:20.736Z,12.82
2023-01-22T18:18:51.606Z,12.63
2023-01-22T18:21:21.787Z,13.02
2023-01-22T18:23:50.146Z,11.73
2023-01-22T18:26:22.583Z,12.45
2023-01-22T18:28:51.187Z,12.70
2023-01-22T18:31:21.400Z,11.00
2023-01-22T18:33:51.424Z,11.40
2023-01-22T18:36:21.708Z,12.05
2023-01-22T18:38:50.044Z,11.95
2023-01-22T18:41:21.618Z,12.68
2023-01-22T18:43:51.907Z,10.95
2023-01-22T18:46:22.110Z,12.48
2023-01-22T18:48:54.351Z,11.07
2023-01-22T18:51:23.423Z,12.13
2023-01-22T18:53:51.818Z,12.65
2023-01-22T18:56:20.181Z,12.25
2023-01-22T18:58:48.467Z,13.50
2023-01-22T19:01:18.314Z,14.32
2023-01-22T19:03:48.068Z,12.52
2023-01-22T19:06:19.504Z,13.40
2023-01-22T19:08:48.996Z,12.70
2023-01-22T19:11:17.690Z,11.98
2023-01-22T19:13:46.242Z,12.25
2023-01-22T19:16:16.404Z,12.63
2023-01-22T19:18:46.545Z,13.10
2023-01-22T19:21:17.576Z,14.20
2023-01-22T19:23:46.205Z,13.20
2023-01-22T19:26:17.193Z,13.05
2023-01-22T19:28:45.605Z,14.55
2023-01-22T19:31:18.492Z,12.50
2023-01-22T19:33:46.956Z,12.30
2023-01-22T19:36:15.298Z,12.35
2023-01-22T19:38:45.132Z,11.80
2023-01-22T19:41:13.444Z,12.70
2023-01-22T19:43:42.020Z,12.02
2023-01-22T19:46:14.122Z,11.55
2023-01-22T19:48:42.510Z,12.07
2023-01-22T19:51:13.446Z,13.15
2023-01-22T19:53:42.205Z,17.45
2023-01-22T19:56:18.385Z,14.10
2023-01-22T19:58:47.619Z,11.77
2023-01-22T20:01:16.696Z,12.77
2023-01-22T20:03:45.128Z,11.13
2023-01-22T20:06:14.143Z,11.45
2023-01-22T20:08:42.597Z,11.80
2023-01-22T20:11:12.026Z,11.68
2023-01-22T20:13:41.693Z,11.18
2023-01-22T20:16:21.117Z,12.40
2023-01-22T20:18:49.547Z,11.80
2023-01-22T20:21:21.227Z,11.13
2023-01-22T20:23:49.748Z,11.80
2023-01-22T20:26:19.382Z,11.80
2023-01-22T20:28:49.128Z,12.20
2023-01-22T20:31:20.660Z,13.15
2023-01-22T20:33:50.200Z,13.38
2023-01-22T20:36:19.440Z,13.65
2023-01-22T20:38:49.233Z,12.23
2023-01-22T20:41:19.041Z,12.93
2023-01-22T20:43:48.735Z,11.93
2023-01-22T20:46:19.707Z,11.98
2023-01-22T20:48:48.048Z,13.00
2023-01-22T20:51:18.131Z,12.07
2023-01-22T20:53:47.040Z,14.52
2023-01-22T20:56:16.504Z,17.23
2023-01-22T20:58:44.894Z,13.82
2023-01-22T21:01:16.385Z,19.77
2023-01-22T21:03:44.787Z,20.42
2023-01-22T21:06:15.667Z,13.52
2023-01-22T21:08:44.109Z,14.73
2023-01-22T21:11:17.758Z,14.63
2023-01-22T21:13:46.055Z,13.02
2023-01-22T21:16:17.765Z,11.55
2023-01-22T21:18:46.621Z,12.77
2023-01-22T21:21:18.547Z,13.73
2023-01-22T21:23:47.790Z,12.98
2023-01-22T21:26:18.676Z,13.82
2023-01-22T21:28:47.911Z,12.52
2023-01-22T21:31:20.065Z,14.32
2023-01-22T21:33:48.674Z,13.80
2023-01-22T21:36:18.451Z,14.50
2023-01-22T21:38:47.381Z,14.27
2023-01-22T21:41:17.750Z,14.88
2023-01-22T21:44:05.188Z,14.75
2023-01-22T21:46:38.679Z,13.80
2023-01-22T21:49:17.160Z,14.00
2023-01-22T21:51:47.109Z,15.77
2023-01-22T21:54:16.551Z,13.15
2023-01-22T21:56:44.800Z,12.43
2023-01-22T21:59:13.326Z,11.90
2023-01-22T22:01:43.080Z,14.05
2023-01-22T22:04:12.182Z,12.43
2023-01-22T22:06:40.668Z,13.35
2023-01-22T22:09:18.746Z,14.40
2023-01-22T22:11:48.266Z,13.55
2023-01-22T22:14:17.658Z,14.18
2023-01-22T22:16:47.544Z,13.02
2023-01-22T22:19:16.093Z,12.75
2023-01-22T22:21:44.442Z,11.70
2023-01-22T22:24:12.819Z,11.88
2023-01-22T22:26:41.342Z,12.30
2023-01-22T22:29:10.080Z,13.05
2023-01-22T22:31:39.186Z,12.48
2023-01-22T22:34:09.693Z,12.93
2023-01-22T22:36:38.022Z,12.63
2023-01-22T22:39:07.187Z,12.30
2023-01-22T22:41:38.431Z,13.40
2023-01-22T22:44:07.049Z,12.57
2023-01-22T22:46:36.933Z,13.98
2023-01-22T22:49:05.730Z,13.90
2023-01-22T22:51:36.793Z,14.10
2023-01-22T22:54:07.627Z,13.20
2023-01-22T22:56:35.935Z,13.50
2023-01-22T22:59:05.175Z,14.68
2023-01-22T23:01:33.540Z,14.15
2023-01-22T23:04:02.088Z,13.88
2023-01-22T23:06:32.255Z,15.20
2023-01-22T23:09:02.332Z,12.88
2023-01-22T23:11:33.105Z,16.25
2023-01-22T23:14:02.712Z,14.65
2023-01-22T23:16:32.213Z,14.70
2023-01-22T23:19:02.032Z,13.75
2023-01-22T23:21:30.451Z,16.05
2023-01-22T23:23:58.739Z,16.20
2023-01-22T23:26:29.989Z,15.40
2023-01-22T23:29:00.726Z,17.38
2023-01-22T23:31:29.687Z,15.55
2023-01-22T23:33:58.311Z,14.27
2023-01-22T23:36:27.437Z,15.32
2023-01-22T23:38:55.882Z,13.80
2023-01-22T23:41:24.366Z,17.77
2023-01-22T23:43:54.300Z,18.00
2023-01-22T23:46:24.193Z,16.83
2023-01-22T23:48:52.668Z,15.15
2023-01-22T23:51:21.095Z,16.77
2023-01-22T23:53:51.660Z,19.25
2023-01-22T23:56:20.594Z,29.67
2023-01-22T23:58:48.921Z,19.27
